Hier das METAR für die 16 wichtigsten Deutschen Flughäfen.
(dauert ein wenig.... ich muss laden.....)

ODER
METAR nach ICAO Code suchen

Berlin - Schönefeld

EDDB

METAR
EDDB 090020Z 07005KT CAVOK M04/M08 Q1022 NOSIG
EDDBMETAR lang
Berlin-Schoenefeld, Germany (EDDB) 52-23N 013-31E 50M
Mar 08, 2021 - 07:20 PM EST / 2021.03.09 0020 UTC
Wind: from the ENE (070 degrees) at 6 MPH (5 KT):0
Visibility: greater than 7 mile(s):0
Temperature: 24 F (-4 C)
Windchill: 17 F (-8 C):1
Dew Point: 17 F (-8 C)
Relative Humidity: 73%
Pressure (altimeter): 30.18 in. Hg (1022 hPa)
ob: EDDB 090020Z 07005KT CAVOK M04/M08 Q1022 NOSIG
cycle: 0

Dresden

EDDC

METAR
EDDC 090020Z 16005KT CAVOK M03/M08 Q1021
EDDCMETAR lang
Dresden-Klotzsche, Germany (EDDC) 51-08N 013-45E 232M
Mar 08, 2021 - 07:20 PM EST / 2021.03.09 0020 UTC
Wind: from the SSE (160 degrees) at 6 MPH (5 KT):0
Visibility: greater than 7 mile(s):0
Temperature: 26 F (-3 C)
Windchill: 19 F (-7 C):1
Dew Point: 17 F (-8 C)
Relative Humidity: 68%
Pressure (altimeter): 30.15 in. Hg (1021 hPa)
ob: EDDC 090020Z 16005KT CAVOK M03/M08 Q1021
cycle: 0

Erfurt

EDDE

METAR
EDDE 090020Z 21005KT CAVOK M01/M04 Q1020
EDDEMETAR lang
Erfurt-Bindersleben, Germany (EDDE) 50-59N 010-58E 322M
Mar 08, 2021 - 07:20 PM EST / 2021.03.09 0020 UTC
Wind: from the SSW (210 degrees) at 6 MPH (5 KT):0
Visibility: greater than 7 mile(s):0
Temperature: 30 F (-1 C)
Windchill: 23 F (-5 C):1
Dew Point: 24 F (-4 C)
Relative Humidity: 80%
Pressure (altimeter): 30.12 in. Hg (1020 hPa)
ob: EDDE 090020Z 21005KT CAVOK M01/M04 Q1020
cycle: 0

Frankfurt a. Main

EDDF

METAR
EDDF 090020Z 04004KT CAVOK 03/M01 Q1020 NOSIG
EDDFMETAR lang
Frankfurt / M-Flughafen, Germany (EDDF) 50-03N 008-36E 113M
Mar 08, 2021 - 07:20 PM EST / 2021.03.09 0020 UTC
Wind: from the NE (040 degrees) at 5 MPH (4 KT):0
Visibility: greater than 7 mile(s):0
Temperature: 37 F (3 C)
Dew Point: 30 F (-1 C)
Relative Humidity: 74%
Pressure (altimeter): 30.12 in. Hg (1020 hPa)
ob: EDDF 090020Z 04004KT CAVOK 03/M01 Q1020 NOSIG
cycle: 0

Münster Osnabrück

EDDG

METAR
EDDG 090020Z 16005KT 6000 -RADZ SCT015 BKN018 04/03 Q1019 TEMPO 4000
EDDGMETAR lang
Muenster / Osnabrueck, Germany (EDDG) 52-08N 007-42E 53M
Mar 08, 2021 - 07:20 PM EST / 2021.03.09 0020 UTC
Wind: from the SSE (160 degrees) at 6 MPH (5 KT):0
Visibility: 3 mile(s):0
Sky conditions: mostly cloudy
Weather: light rain, drizzle
Temperature: 39 F (4 C)
Dew Point: 37 F (3 C)
Relative Humidity: 93%
Pressure (altimeter): 30.09 in. Hg (1019 hPa)
ob: EDDG 090020Z 16005KT 6000 -RADZ SCT015 BKN018 04/03 Q1019 TEMPO 4000
cycle: 0

Hamburg

EDDH

METAR
EDDH 090020Z 11004KT CAVOK 01/M05 Q1020 NOSIG
EDDHMETAR lang
Hamburg-Fuhlsbuettel, Germany (EDDH) 53-38N 010-00E 15M
Mar 08, 2021 - 07:20 PM EST / 2021.03.09 0020 UTC
Wind: from the ESE (110 degrees) at 5 MPH (4 KT):0
Visibility: greater than 7 mile(s):0
Temperature: 33 F (1 C)
Windchill: 28 F (-2 C):1
Dew Point: 23 F (-5 C)
Relative Humidity: 64%
Pressure (altimeter): 30.12 in. Hg (1020 hPa)
ob: EDDH 090020Z 11004KT CAVOK 01/M05 Q1020 NOSIG
cycle: 0

Köln - Bonn

EDDK

METAR
EDDK 090020Z 07003KT 060V170 7000 FEW040 01/M00 Q1020 NOSIG
EDDKMETAR lang
Koeln / Bonn, Germany (EDDK) 50-52N 007-10E 100M
Mar 08, 2021 - 07:20 PM EST / 2021.03.09 0020 UTC
Wind: from the ENE (070 degrees) at 3 MPH (3 KT) (direction variable):0
Visibility: 4 mile(s):0
Sky conditions: mostly clear
Temperature: 33 F (1 C)
Dew Point: 32 F (0 C)
Relative Humidity: 93%
Pressure (altimeter): 30.12 in. Hg (1020 hPa)
ob: EDDK 090020Z 07003KT 060V170 7000 FEW040 01/M00 Q1020 NOSIG
cycle: 0

Düsseldorf

EDDL

METAR
EDDL 090020Z 16003KT 7000 -RA FEW011 BKN029 OVC047 04/02 Q1020 NOSIG
EDDLMETAR lang
Duesseldorf, Germany (EDDL) 51-18N 006-46E 41M
Mar 08, 2021 - 07:20 PM EST / 2021.03.09 0020 UTC
Wind: from the SSE (160 degrees) at 3 MPH (3 KT):0
Visibility: 4 mile(s):0
Sky conditions: overcast
Weather: light rain
Temperature: 39 F (4 C)
Dew Point: 35 F (2 C)
Relative Humidity: 86%
Pressure (altimeter): 30.12 in. Hg (1020 hPa)
ob: EDDL 090020Z 16003KT 7000 -RA FEW011 BKN029 OVC047 04/02 Q1020 NOSIG
cycle: 0

München

EDDM

METAR
EDDM 090020Z VRB02KT CAVOK M04/M05 Q1018 NOSIG
EDDMMETAR lang
Munchen, Germany (EDDM) 48-21N 011-47E
Mar 08, 2021 - 07:20 PM EST / 2021.03.09 0020 UTC
Wind: Variable at 2 MPH (2 KT):0
Visibility: greater than 7 mile(s):0
Temperature: 24 F (-4 C)
Dew Point: 23 F (-5 C)
Relative Humidity: 92%
Pressure (altimeter): 30.06 in. Hg (1018 hPa)
ob: EDDM 090020Z VRB02KT CAVOK M04/M05 Q1018 NOSIG
cycle: 0

Nürnberg

EDDN

METAR
EDDN 090020Z 01002KT CAVOK M04/M04 Q1019
EDDNMETAR lang
Nuernberg, Germany (EDDN) 49-30N 011-03E 318M
Mar 08, 2021 - 07:20 PM EST / 2021.03.09 0020 UTC
Wind: from the N (010 degrees) at 2 MPH (2 KT):0
Visibility: greater than 7 mile(s):0
Temperature: 24 F (-4 C)
Dew Point: 24 F (-4 C)
Relative Humidity: 100%
Pressure (altimeter): 30.09 in. Hg (1019 hPa)
ob: EDDN 090020Z 01002KT CAVOK M04/M04 Q1019
cycle: 0

Leipzig - Halle

EDDP

METAR
EDDP 090020Z 16004KT CAVOK M00/M05 Q1021 NOSIG
EDDPMETAR lang
Leipzig-Schkeuditz, Germany (EDDP) 51-25N 012-14E 149M
Mar 08, 2021 - 07:20 PM EST / 2021.03.09 0020 UTC
Wind: from the SSE (160 degrees) at 5 MPH (4 KT):0
Visibility: greater than 7 mile(s):0
Temperature: 32 F (0 C)
Windchill: 26 F (-3 C):1
Dew Point: 23 F (-5 C)
Relative Humidity: 69%
Pressure (altimeter): 30.15 in. Hg (1021 hPa)
ob: EDDP 090020Z 16004KT CAVOK M00/M05 Q1021 NOSIG
cycle: 0

Saarbrücken

EDDR

METAR
EDDR 090020Z 04007KT CAVOK M00/M03 Q1019
EDDRMETAR lang
Saarbruecken / Ensheim, Germany (EDDR) 49-13N 007-07E 320M
Mar 08, 2021 - 07:20 PM EST / 2021.03.09 0020 UTC
Wind: from the NE (040 degrees) at 8 MPH (7 KT):0
Visibility: greater than 7 mile(s):0
Temperature: 32 F (0 C)
Windchill: 24 F (-4 C):1
Dew Point: 26 F (-3 C)
Relative Humidity: 80%
Pressure (altimeter): 30.09 in. Hg (1019 hPa)
ob: EDDR 090020Z 04007KT CAVOK M00/M03 Q1019
cycle: 0

Stuttgart

EDDS

METAR
EDDS 090020Z VRB02KT CAVOK M02/M06 Q1018
EDDSMETAR lang
Stuttgart-Echterdingen, Germany (EDDS) 48-41N 009-13E 391M
Mar 08, 2021 - 07:20 PM EST / 2021.03.09 0020 UTC
Wind: Variable at 2 MPH (2 KT):0
Visibility: greater than 7 mile(s):0
Temperature: 28 F (-2 C)
Dew Point: 21 F (-6 C)
Relative Humidity: 74%
Pressure (altimeter): 30.06 in. Hg (1018 hPa)
ob: EDDS 090020Z VRB02KT CAVOK M02/M06 Q1018
cycle: 0

Berlin - Tegel

EDDT

METAR
EDDT 090650Z 09006KT 050V120 3000 BR OVC003 06/05 Q1027
EDDTMETAR lang
Berlin-Tegel, Germany (EDDT) 52-34N 013-19E 37M
Nov 09, 2020 - 01:50 AM EST / 2020.11.09 0650 UTC
Wind: from the E (090 degrees) at 7 MPH (6 KT) (direction variable):0
Visibility: 1 mile(s):0
Sky conditions: overcast
Weather: mist
Temperature: 42 F (6 C)
Dew Point: 41 F (5 C)
Relative Humidity: 93%
Pressure (altimeter): 30.33 in. Hg (1027 hPa)
ob: EDDT 090650Z 09006KT 050V120 3000 BR OVC003 06/05 Q1027
cycle: 7

Hannover

EDDV

METAR
EDDV 090020Z 16004KT 9999 FEW038 03/M04 Q1020
EDDVMETAR lang
Hannover, Germany (EDDV) 52-28N 009-41E 59M
Mar 08, 2021 - 07:20 PM EST / 2021.03.09 0020 UTC
Wind: from the SSE (160 degrees) at 5 MPH (4 KT):0
Visibility: greater than 7 mile(s):0
Sky conditions: mostly clear
Temperature: 37 F (3 C)
Dew Point: 24 F (-4 C)
Relative Humidity: 59%
Pressure (altimeter): 30.12 in. Hg (1020 hPa)
ob: EDDV 090020Z 16004KT 9999 FEW038 03/M04 Q1020
cycle: 0

Bremen

EDDW

METAR
EDDW 090020Z 20003KT 9999 BKN027 03/M03 Q1020 R88/190095
EDDWMETAR lang
Bremen, Germany (EDDW) 53-03N 008-48E 5M
Mar 08, 2021 - 07:20 PM EST / 2021.03.09 0020 UTC
Wind: from the SSW (200 degrees) at 3 MPH (3 KT):0
Visibility: greater than 7 mile(s):0
Sky conditions: mostly cloudy
Temperature: 37 F (3 C)
Dew Point: 26 F (-3 C)
Relative Humidity: 64%
Pressure (altimeter): 30.12 in. Hg (1020 hPa)
ob: EDDW 090020Z 20003KT 9999 BKN027 03/M03 Q1020 R88/190095
cycle: 0